sensor_id;sensor_type;location;lat;lon;timestamp;P1;durP1;ratioP1;P2;durP2;ratioP2
495;SDS011;39559;48.630;9.162;2023-05-07T00:02:15;5.37;;;4.87;;
495;SDS011;39559;48.630;9.162;2023-05-07T00:04:40;7.83;;;5.23;;
495;SDS011;39559;48.630;9.162;2023-05-07T00:07:06;5.67;;;5.03;;
495;SDS011;39559;48.630;9.162;2023-05-07T00:11:27;7.63;;;4.47;;
495;SDS011;39559;48.630;9.162;2023-05-07T00:13:53;6.90;;;4.72;;
495;SDS011;39559;48.630;9.162;2023-05-07T00:16:19;5.83;;;5.17;;
495;SDS011;39559;48.630;9.162;2023-05-07T00:18:44;5.00;;;4.47;;
495;SDS011;39559;48.630;9.162;2023-05-07T00:21:11;6.15;;;5.03;;
495;SDS011;39559;48.630;9.162;2023-05-07T00:23:36;6.23;;;4.83;;
495;SDS011;39559;48.630;9.162;2023-05-07T00:26:02;4.43;;;4.03;;
495;SDS011;39559;48.630;9.162;2023-05-07T00:28:29;5.20;;;4.40;;
495;SDS011;39559;48.630;9.162;2023-05-07T00:30:55;6.80;;;4.50;;
495;SDS011;39559;48.630;9.162;2023-05-07T00:35:23;4.82;;;4.25;;
495;SDS011;39559;48.630;9.162;2023-05-07T00:37:48;7.03;;;5.10;;
495;SDS011;39559;48.630;9.162;2023-05-07T00:40:14;5.05;;;4.40;;
495;SDS011;39559;48.630;9.162;2023-05-07T00:42:40;5.10;;;4.60;;
495;SDS011;39559;48.630;9.162;2023-05-07T00:45:06;4.57;;;4.17;;
495;SDS011;39559;48.630;9.162;2023-05-07T00:47:32;5.55;;;5.03;;
495;SDS011;39559;48.630;9.162;2023-05-07T00:49:58;6.53;;;4.50;;
495;SDS011;39559;48.630;9.162;2023-05-07T00:52:25;7.90;;;4.63;;
495;SDS011;39559;48.630;9.162;2023-05-07T00:54:51;5.72;;;4.45;;
495;SDS011;39559;48.630;9.162;2023-05-07T00:59:19;5.03;;;4.60;;
495;SDS011;39559;48.630;9.162;2023-05-07T01:01:45;5.60;;;4.73;;
495;SDS011;39559;48.630;9.162;2023-05-07T01:04:11;7.33;;;4.83;;
495;SDS011;39559;48.630;9.162;2023-05-07T01:06:36;4.70;;;4.20;;
495;SDS011;39559;48.630;9.162;2023-05-07T01:09:03;7.82;;;4.80;;
495;SDS011;39559;48.630;9.162;2023-05-07T01:11:29;5.10;;;4.60;;
495;SDS011;39559;48.630;9.162;2023-05-07T01:13:55;5.10;;;4.60;;
495;SDS011;39559;48.630;9.162;2023-05-07T01:16:24;5.38;;;4.88;;
495;SDS011;39559;48.630;9.162;2023-05-07T01:18:50;5.80;;;4.60;;
495;SDS011;39559;48.630;9.162;2023-05-07T01:23:13;8.85;;;5.03;;
495;SDS011;39559;48.630;9.162;2023-05-07T01:25:40;4.70;;;4.18;;
495;SDS011;39559;48.630;9.162;2023-05-07T01:28:06;5.10;;;4.40;;
495;SDS011;39559;48.630;9.162;2023-05-07T01:30:31;5.90;;;4.87;;
495;SDS011;39559;48.630;9.162;2023-05-07T01:33:01;6.93;;;4.07;;
495;SDS011;39559;48.630;9.162;2023-05-07T01:35:36;6.15;;;4.90;;
495;SDS011;39559;48.630;9.162;2023-05-07T01:38:05;5.03;;;4.30;;
495;SDS011;39559;48.630;9.162;2023-05-07T01:40:32;6.70;;;5.50;;
495;SDS011;39559;48.630;9.162;2023-05-07T01:42:59;5.85;;;4.68;;
495;SDS011;39559;48.630;9.162;2023-05-07T01:47:13;5.78;;;5.03;;
495;SDS011;39559;48.630;9.162;2023-05-07T01:49:40;6.20;;;4.45;;
495;SDS011;39559;48.630;9.162;2023-05-07T01:52:07;5.45;;;4.90;;
495;SDS011;39559;48.630;9.162;2023-05-07T01:54:33;5.90;;;5.03;;
495;SDS011;39559;48.630;9.162;2023-05-07T01:56:59;6.37;;;4.80;;
495;SDS011;39559;48.630;9.162;2023-05-07T01:59:25;6.25;;;5.10;;
495;SDS011;39559;48.630;9.162;2023-05-07T02:02:09;5.40;;;4.75;;
495;SDS011;39559;48.630;9.162;2023-05-07T02:04:35;6.00;;;4.83;;
495;SDS011;39559;48.630;9.162;2023-05-07T02:07:01;5.47;;;4.70;;
495;SDS011;39559;48.630;9.162;2023-05-07T02:11:09;4.78;;;4.38;;
495;SDS011;39559;48.630;9.162;2023-05-07T02:13:35;5.27;;;4.77;;
495;SDS011;39559;48.630;9.162;2023-05-07T02:16:01;5.88;;;4.80;;
495;SDS011;39559;48.630;9.162;2023-05-07T02:18:27;5.45;;;4.88;;
495;SDS011;39559;48.630;9.162;2023-05-07T02:20:53;5.07;;;4.57;;
495;SDS011;39559;48.630;9.162;2023-05-07T02:23:19;6.23;;;4.33;;
495;SDS011;39559;48.630;9.162;2023-05-07T02:25:45;4.87;;;4.40;;
495;SDS011;39559;48.630;9.162;2023-05-07T02:28:11;7.25;;;4.57;;
495;SDS011;39559;48.630;9.162;2023-05-07T02:30:37;6.60;;;4.90;;
495;SDS011;39559;48.630;9.162;2023-05-07T02:35:06;5.72;;;4.60;;
495;SDS011;39559;48.630;9.162;2023-05-07T02:37:33;5.47;;;4.55;;
495;SDS011;39559;48.630;9.162;2023-05-07T02:39:58;4.50;;;4.10;;
495;SDS011;39559;48.630;9.162;2023-05-07T02:42:24;4.97;;;4.47;;
495;SDS011;39559;48.630;9.162;2023-05-07T02:44:50;6.40;;;4.83;;
495;SDS011;39559;48.630;9.162;2023-05-07T02:47:15;5.17;;;4.70;;
495;SDS011;39559;48.630;9.162;2023-05-07T02:49:41;5.07;;;4.57;;
495;SDS011;39559;48.630;9.162;2023-05-07T02:52:07;5.93;;;4.83;;
495;SDS011;39559;48.630;9.162;2023-05-07T02:54:33;5.03;;;4.63;;
495;SDS011;39559;48.630;9.162;2023-05-07T02:59:03;4.88;;;4.40;;
495;SDS011;39559;48.630;9.162;2023-05-07T03:02:16;5.25;;;4.75;;
495;SDS011;39559;48.630;9.162;2023-05-07T03:04:41;5.57;;;5.17;;
495;SDS011;39559;48.630;9.162;2023-05-07T03:07:07;4.87;;;4.43;;
495;SDS011;39559;48.630;9.162;2023-05-07T03:09:33;5.50;;;5.00;;
495;SDS011;39559;48.630;9.162;2023-05-07T03:11:58;6.60;;;4.90;;
495;SDS011;39559;48.630;9.162;2023-05-07T03:14:24;8.87;;;5.27;;
495;SDS011;39559;48.630;9.162;2023-05-07T03:16:50;7.30;;;5.30;;
495;SDS011;39559;48.630;9.162;2023-05-07T03:19:15;7.90;;;5.13;;
495;SDS011;39559;48.630;9.162;2023-05-07T03:23:01;5.65;;;4.93;;
495;SDS011;39559;48.630;9.162;2023-05-07T03:25:27;9.00;;;5.40;;
495;SDS011;39559;48.630;9.162;2023-05-07T03:27:52;5.72;;;5.22;;
495;SDS011;39559;48.630;9.162;2023-05-07T03:30:18;8.13;;;5.50;;
495;SDS011;39559;48.630;9.162;2023-05-07T03:32:44;5.27;;;4.87;;
495;SDS011;39559;48.630;9.162;2023-05-07T03:35:09;5.83;;;5.23;;
495;SDS011;39559;48.630;9.162;2023-05-07T03:37:35;5.27;;;4.87;;
495;SDS011;39559;48.630;9.162;2023-05-07T03:40:00;5.87;;;5.33;;
495;SDS011;39559;48.630;9.162;2023-05-07T03:42:28;6.38;;;5.30;;
495;SDS011;39559;48.630;9.162;2023-05-07T03:46:58;5.60;;;4.93;;
495;SDS011;39559;48.630;9.162;2023-05-07T03:49:24;5.50;;;4.43;;
495;SDS011;39559;48.630;9.162;2023-05-07T03:51:49;5.83;;;5.23;;
495;SDS011;39559;48.630;9.162;2023-05-07T03:54:15;5.43;;;4.97;;
495;SDS011;39559;48.630;9.162;2023-05-07T03:56:41;6.70;;;5.00;;
495;SDS011;39559;48.630;9.162;2023-05-07T03:59:06;5.80;;;4.90;;
495;SDS011;39559;48.630;9.162;2023-05-07T04:01:32;4.95;;;4.45;;
495;SDS011;39559;48.630;9.162;2023-05-07T04:03:58;6.43;;;5.23;;
495;SDS011;39559;48.630;9.162;2023-05-07T04:06:24;7.13;;;5.50;;
495;SDS011;39559;48.630;9.162;2023-05-07T04:11:02;5.30;;;4.75;;
495;SDS011;39559;48.630;9.162;2023-05-07T04:13:29;6.18;;;4.55;;
495;SDS011;39559;48.630;9.162;2023-05-07T04:15:55;6.70;;;5.28;;
495;SDS011;39559;48.630;9.162;2023-05-07T04:18:21;5.00;;;4.50;;
495;SDS011;39559;48.630;9.162;2023-05-07T04:20:47;4.73;;;4.33;;
495;SDS011;39559;48.630;9.162;2023-05-07T04:23:15;6.35;;;4.82;;
495;SDS011;39559;48.630;9.162;2023-05-07T04:25:41;5.38;;;4.85;;
495;SDS011;39559;48.630;9.162;2023-05-07T04:28:06;5.50;;;4.87;;
495;SDS011;39559;48.630;9.162;2023-05-07T04:30:32;6.60;;;5.10;;
495;SDS011;39559;48.630;9.162;2023-05-07T04:34:54;6.30;;;5.25;;
495;SDS011;39559;48.630;9.162;2023-05-07T04:37:22;5.85;;;5.35;;
495;SDS011;39559;48.630;9.162;2023-05-07T04:39:49;5.35;;;4.85;;
495;SDS011;39559;48.630;9.162;2023-05-07T04:42:16;6.32;;;5.35;;
495;SDS011;39559;48.630;9.162;2023-05-07T04:44:44;5.50;;;5.00;;
495;SDS011;39559;48.630;9.162;2023-05-07T04:47:11;5.70;;;5.18;;
495;SDS011;39559;48.630;9.162;2023-05-07T04:49:38;5.63;;;4.85;;
495;SDS011;39559;48.630;9.162;2023-05-07T04:52:05;8.90;;;4.95;;
495;SDS011;39559;48.630;9.162;2023-05-07T04:54:31;5.87;;;4.33;;
495;SDS011;39559;48.630;9.162;2023-05-07T04:58:51;11.55;;;5.30;;
495;SDS011;39559;48.630;9.162;2023-05-07T05:01:16;6.13;;;5.53;;
495;SDS011;39559;48.630;9.162;2023-05-07T05:03:42;5.53;;;5.03;;
495;SDS011;39559;48.630;9.162;2023-05-07T05:06:08;6.90;;;5.57;;
495;SDS011;39559;48.630;9.162;2023-05-07T05:08:33;7.80;;;5.77;;
495;SDS011;39559;48.630;9.162;2023-05-07T05:11:00;7.20;;;5.57;;
495;SDS011;39559;48.630;9.162;2023-05-07T05:13:27;7.70;;;5.75;;
495;SDS011;39559;48.630;9.162;2023-05-07T05:15:53;6.33;;;5.73;;
495;SDS011;39559;48.630;9.162;2023-05-07T05:18:22;6.63;;;5.93;;
495;SDS011;39559;48.630;9.162;2023-05-07T05:22:49;6.80;;;5.35;;
495;SDS011;39559;48.630;9.162;2023-05-07T05:25:15;5.60;;;5.00;;
495;SDS011;39559;48.630;9.162;2023-05-07T05:27:40;5.40;;;4.70;;
495;SDS011;39559;48.630;9.162;2023-05-07T05:30:06;6.33;;;5.30;;
495;SDS011;39559;48.630;9.162;2023-05-07T05:32:32;6.45;;;5.60;;
495;SDS011;39559;48.630;9.162;2023-05-07T05:34:58;6.97;;;5.80;;
495;SDS011;39559;48.630;9.162;2023-05-07T05:37:23;6.90;;;6.20;;
495;SDS011;39559;48.630;9.162;2023-05-07T05:39:50;6.78;;;5.35;;
495;SDS011;39559;48.630;9.162;2023-05-07T05:42:15;6.50;;;5.83;;
495;SDS011;39559;48.630;9.162;2023-05-07T05:46:46;8.75;;;6.22;;
495;SDS011;39559;48.630;9.162;2023-05-07T05:49:12;7.03;;;6.33;;
495;SDS011;39559;48.630;9.162;2023-05-07T05:51:38;6.70;;;5.50;;
495;SDS011;39559;48.630;9.162;2023-05-07T05:54:03;8.27;;;6.90;;
495;SDS011;39559;48.630;9.162;2023-05-07T05:56:29;7.43;;;6.07;;
495;SDS011;39559;48.630;9.162;2023-05-07T05:58:55;8.57;;;7.17;;
495;SDS011;39559;48.630;9.162;2023-05-07T06:01:21;11.20;;;7.20;;
495;SDS011;39559;48.630;9.162;2023-05-07T06:03:46;8.23;;;6.63;;
495;SDS011;39559;48.630;9.162;2023-05-07T06:10:52;8.02;;;7.05;;
495;SDS011;39559;48.630;9.162;2023-05-07T06:13:29;7.55;;;6.75;;
495;SDS011;39559;48.630;9.162;2023-05-07T06:15:55;7.57;;;5.90;;
495;SDS011;39559;48.630;9.162;2023-05-07T06:18:20;6.80;;;6.10;;
495;SDS011;39559;48.630;9.162;2023-05-07T06:20:46;8.10;;;7.10;;
495;SDS011;39559;48.630;9.162;2023-05-07T06:23:11;7.90;;;7.10;;
495;SDS011;39559;48.630;9.162;2023-05-07T06:25:37;8.50;;;6.90;;
495;SDS011;39559;48.630;9.162;2023-05-07T06:28:02;7.50;;;6.67;;
495;SDS011;39559;48.630;9.162;2023-05-07T06:30:28;7.70;;;6.50;;
495;SDS011;39559;48.630;9.162;2023-05-07T06:34:42;8.23;;;5.80;;
495;SDS011;39559;48.630;9.162;2023-05-07T06:37:08;6.30;;;5.63;;
495;SDS011;39559;48.630;9.162;2023-05-07T06:39:34;6.40;;;5.80;;
495;SDS011;39559;48.630;9.162;2023-05-07T06:42:00;6.53;;;5.90;;
495;SDS011;39559;48.630;9.162;2023-05-07T06:44:30;6.28;;;5.60;;
495;SDS011;39559;48.630;9.162;2023-05-07T06:46:56;6.78;;;5.88;;
495;SDS011;39559;48.630;9.162;2023-05-07T06:49:22;7.57;;;5.95;;
495;SDS011;39559;48.630;9.162;2023-05-07T06:51:47;6.83;;;5.93;;
495;SDS011;39559;48.630;9.162;2023-05-07T06:54:13;5.57;;;5.07;;
495;SDS011;39559;48.630;9.162;2023-05-07T06:58:40;5.45;;;4.95;;
495;SDS011;39559;48.630;9.162;2023-05-07T07:01:06;6.10;;;5.30;;
495;SDS011;39559;48.630;9.162;2023-05-07T07:03:31;6.10;;;5.33;;
495;SDS011;39559;48.630;9.162;2023-05-07T07:05:57;5.47;;;4.30;;
495;SDS011;39559;48.630;9.162;2023-05-07T07:08:23;5.20;;;4.70;;
495;SDS011;39559;48.630;9.162;2023-05-07T07:10:48;4.40;;;4.00;;
495;SDS011;39559;48.630;9.162;2023-05-07T07:13:14;5.10;;;4.60;;
495;SDS011;39559;48.630;9.162;2023-05-07T07:15:40;5.60;;;4.97;;
495;SDS011;39559;48.630;9.162;2023-05-07T07:18:07;5.27;;;4.77;;
495;SDS011;39559;48.630;9.162;2023-05-07T07:22:35;5.00;;;4.53;;
495;SDS011;39559;48.630;9.162;2023-05-07T07:25:02;7.47;;;5.03;;
495;SDS011;39559;48.630;9.162;2023-05-07T07:27:33;5.00;;;4.55;;
495;SDS011;39559;48.630;9.162;2023-05-07T07:29:59;5.28;;;4.78;;
495;SDS011;39559;48.630;9.162;2023-05-07T07:32:25;5.07;;;4.57;;
495;SDS011;39559;48.630;9.162;2023-05-07T07:34:51;4.73;;;4.27;;
495;SDS011;39559;48.630;9.162;2023-05-07T07:37:16;5.10;;;4.47;;
495;SDS011;39559;48.630;9.162;2023-05-07T07:39:42;4.63;;;4.23;;
495;SDS011;39559;48.630;9.162;2023-05-07T07:42:08;5.47;;;4.67;;
495;SDS011;39559;48.630;9.162;2023-05-07T07:46:36;13.63;;;5.70;;
495;SDS011;39559;48.630;9.162;2023-05-07T07:49:01;4.70;;;4.30;;
495;SDS011;39559;48.630;9.162;2023-05-07T07:51:27;4.60;;;4.20;;
495;SDS011;39559;48.630;9.162;2023-05-07T07:53:52;5.50;;;5.00;;
495;SDS011;39559;48.630;9.162;2023-05-07T07:56:18;4.83;;;4.30;;
495;SDS011;39559;48.630;9.162;2023-05-07T07:58:44;5.13;;;4.63;;
495;SDS011;39559;48.630;9.162;2023-05-07T08:04:04;4.97;;;4.47;;
495;SDS011;39559;48.630;9.162;2023-05-07T08:06:31;7.93;;;4.97;;
495;SDS011;39559;48.630;9.162;2023-05-07T08:10:32;4.60;;;4.20;;
495;SDS011;39559;48.630;9.162;2023-05-07T08:13:00;4.90;;;4.40;;
495;SDS011;39559;48.630;9.162;2023-05-07T08:15:28;6.50;;;4.13;;
495;SDS011;39559;48.630;9.162;2023-05-07T08:17:54;4.40;;;4.00;;
495;SDS011;39559;48.630;9.162;2023-05-07T08:20:22;7.03;;;4.10;;
495;SDS011;39559;48.630;9.162;2023-05-07T08:22:48;4.67;;;4.23;;
495;SDS011;39559;48.630;9.162;2023-05-07T08:25:14;5.03;;;4.63;;
495;SDS011;39559;48.630;9.162;2023-05-07T08:27:39;4.47;;;4.07;;
495;SDS011;39559;48.630;9.162;2023-05-07T08:30:05;5.00;;;4.60;;
495;SDS011;39559;48.630;9.162;2023-05-07T08:34:31;4.57;;;3.97;;
495;SDS011;39559;48.630;9.162;2023-05-07T08:36:57;4.50;;;4.10;;
495;SDS011;39559;48.630;9.162;2023-05-07T08:39:22;5.73;;;4.40;;
495;SDS011;39559;48.630;9.162;2023-05-07T08:41:48;7.63;;;4.60;;
495;SDS011;39559;48.630;9.162;2023-05-07T08:44:17;5.90;;;4.40;;
495;SDS011;39559;48.630;9.162;2023-05-07T08:46:46;5.10;;;4.60;;
495;SDS011;39559;48.630;9.162;2023-05-07T08:49:16;4.43;;;4.03;;
495;SDS011;39559;48.630;9.162;2023-05-07T08:51:42;4.43;;;4.13;;
495;SDS011;39559;48.630;9.162;2023-05-07T08:54:08;4.60;;;4.20;;
495;SDS011;39559;48.630;9.162;2023-05-07T08:58:28;4.50;;;4.10;;
495;SDS011;39559;48.630;9.162;2023-05-07T09:00:54;6.30;;;4.80;;
495;SDS011;39559;48.630;9.162;2023-05-07T09:03:20;4.87;;;4.40;;
495;SDS011;39559;48.630;9.162;2023-05-07T09:05:46;4.40;;;4.00;;
495;SDS011;39559;48.630;9.162;2023-05-07T09:08:14;4.80;;;4.30;;
495;SDS011;39559;48.630;9.162;2023-05-07T09:10:40;4.30;;;4.00;;
495;SDS011;39559;48.630;9.162;2023-05-07T09:13:06;4.27;;;3.87;;
495;SDS011;39559;48.630;9.162;2023-05-07T09:15:31;7.90;;;4.90;;
495;SDS011;39559;48.630;9.162;2023-05-07T09:18:00;4.93;;;4.53;;
495;SDS011;39559;48.630;9.162;2023-05-07T09:22:25;4.50;;;4.10;;
495;SDS011;39559;48.630;9.162;2023-05-07T09:24:51;4.30;;;3.90;;
495;SDS011;39559;48.630;9.162;2023-05-07T09:27:17;4.67;;;3.90;;
495;SDS011;39559;48.630;9.162;2023-05-07T09:29:43;4.63;;;3.90;;
495;SDS011;39559;48.630;9.162;2023-05-07T09:32:11;4.47;;;4.07;;
495;SDS011;39559;48.630;9.162;2023-05-07T09:34:37;5.03;;;4.40;;
495;SDS011;39559;48.630;9.162;2023-05-07T09:37:03;5.10;;;4.03;;
495;SDS011;39559;48.630;9.162;2023-05-07T09:39:42;4.20;;;3.80;;
495;SDS011;39559;48.630;9.162;2023-05-07T09:42:12;4.33;;;3.70;;
495;SDS011;39559;48.630;9.162;2023-05-07T09:46:27;4.30;;;3.83;;
495;SDS011;39559;48.630;9.162;2023-05-07T09:49:16;4.33;;;3.93;;
495;SDS011;39559;48.630;9.162;2023-05-07T09:51:50;4.23;;;3.87;;
495;SDS011;39559;48.630;9.162;2023-05-07T09:54:17;4.90;;;4.40;;
495;SDS011;39559;48.630;9.162;2023-05-07T09:56:46;5.10;;;3.80;;
495;SDS011;39559;48.630;9.162;2023-05-07T09:59:14;4.13;;;3.73;;
495;SDS011;39559;48.630;9.162;2023-05-07T10:01:41;4.50;;;4.10;;
495;SDS011;39559;48.630;9.162;2023-05-07T10:04:09;4.00;;;3.67;;
495;SDS011;39559;48.630;9.162;2023-05-07T10:06:36;4.43;;;3.93;;
495;SDS011;39559;48.630;9.162;2023-05-07T10:10:19;4.67;;;3.70;;
495;SDS011;39559;48.630;9.162;2023-05-07T10:12:47;4.23;;;3.87;;
495;SDS011;39559;48.630;9.162;2023-05-07T10:15:14;4.40;;;3.80;;
495;SDS011;39559;48.630;9.162;2023-05-07T10:17:40;7.10;;;3.97;;
495;SDS011;39559;48.630;9.162;2023-05-07T10:20:07;4.63;;;4.20;;
495;SDS011;39559;48.630;9.162;2023-05-07T10:22:47;3.60;;;3.30;;
495;SDS011;39559;48.630;9.162;2023-05-07T10:25:28;4.10;;;3.70;;
495;SDS011;39559;48.630;9.162;2023-05-07T10:27:57;4.00;;;3.70;;
495;SDS011;39559;48.630;9.162;2023-05-07T10:34:16;4.50;;;4.10;;
495;SDS011;39559;48.630;9.162;2023-05-07T10:36:47;4.50;;;4.10;;
495;SDS011;39559;48.630;9.162;2023-05-07T10:39:15;4.77;;;4.10;;
495;SDS011;39559;48.630;9.162;2023-05-07T10:41:41;3.97;;;3.67;;
495;SDS011;39559;48.630;9.162;2023-05-07T10:44:07;5.50;;;3.90;;
495;SDS011;39559;48.630;9.162;2023-05-07T10:46:32;3.93;;;3.60;;
495;SDS011;39559;48.630;9.162;2023-05-07T10:51:26;4.60;;;3.90;;
495;SDS011;39559;48.630;9.162;2023-05-07T11:00:47;4.63;;;4.13;;
495;SDS011;39559;48.630;9.162;2023-05-07T11:03:13;4.70;;;4.30;;
495;SDS011;39559;48.630;9.162;2023-05-07T11:05:43;3.70;;;3.40;;
495;SDS011;39559;48.630;9.162;2023-05-07T11:08:09;4.83;;;3.70;;
495;SDS011;39559;48.630;9.162;2023-05-07T11:16:21;4.50;;;4.00;;
495;SDS011;39559;48.630;9.162;2023-05-07T11:18:54;4.80;;;4.40;;
495;SDS011;39559;48.630;9.162;2023-05-07T11:22:27;4.50;;;4.10;;
495;SDS011;39559;48.630;9.162;2023-05-07T11:25:01;4.00;;;3.70;;
495;SDS011;39559;48.630;9.162;2023-05-07T11:27:31;4.10;;;3.80;;
495;SDS011;39559;48.630;9.162;2023-05-07T11:29:57;4.87;;;3.93;;
495;SDS011;39559;48.630;9.162;2023-05-07T11:32:23;4.37;;;3.97;;
495;SDS011;39559;48.630;9.162;2023-05-07T11:34:56;5.33;;;4.00;;
495;SDS011;39559;48.630;9.162;2023-05-07T11:37:25;4.70;;;4.30;;
495;SDS011;39559;48.630;9.162;2023-05-07T11:40:02;4.13;;;3.67;;
495;SDS011;39559;48.630;9.162;2023-05-07T11:42:37;6.20;;;4.03;;
495;SDS011;39559;48.630;9.162;2023-05-07T11:46:11;5.97;;;4.20;;
495;SDS011;39559;48.630;9.162;2023-05-07T11:48:38;4.47;;;4.10;;
495;SDS011;39559;48.630;9.162;2023-05-07T11:51:05;4.37;;;3.97;;
495;SDS011;39559;48.630;9.162;2023-05-07T11:53:40;4.30;;;3.90;;
495;SDS011;39559;48.630;9.162;2023-05-07T11:56:08;4.93;;;4.53;;
495;SDS011;39559;48.630;9.162;2023-05-07T11:58:34;4.37;;;3.97;;
495;SDS011;39559;48.630;9.162;2023-05-07T12:01:01;4.90;;;4.17;;
495;SDS011;39559;48.630;9.162;2023-05-07T12:03:27;7.50;;;4.40;;
495;SDS011;39559;48.630;9.162;2023-05-07T12:05:52;4.37;;;4.00;;
495;SDS011;39559;48.630;9.162;2023-05-07T12:09:59;6.53;;;3.63;;
495;SDS011;39559;48.630;9.162;2023-05-07T12:12:30;4.90;;;4.40;;
495;SDS011;39559;48.630;9.162;2023-05-07T12:14:55;4.50;;;4.10;;
495;SDS011;39559;48.630;9.162;2023-05-07T12:17:21;4.33;;;3.90;;
495;SDS011;39559;48.630;9.162;2023-05-07T12:19:47;3.50;;;3.30;;
495;SDS011;39559;48.630;9.162;2023-05-07T12:22:13;4.10;;;3.70;;
495;SDS011;39559;48.630;9.162;2023-05-07T12:24:48;4.80;;;4.30;;
495;SDS011;39559;48.630;9.162;2023-05-07T12:27:21;4.97;;;3.70;;
495;SDS011;39559;48.630;9.162;2023-05-07T12:29:47;6.47;;;4.00;;
495;SDS011;39559;48.630;9.162;2023-05-07T12:34:03;4.90;;;3.70;;
495;SDS011;39559;48.630;9.162;2023-05-07T12:36:36;7.83;;;4.00;;
495;SDS011;39559;48.630;9.162;2023-05-07T12:39:06;4.40;;;3.60;;
495;SDS011;39559;48.630;9.162;2023-05-07T12:41:51;4.40;;;4.00;;
495;SDS011;39559;48.630;9.162;2023-05-07T12:44:23;6.50;;;4.13;;
495;SDS011;39559;48.630;9.162;2023-05-07T12:46:51;4.37;;;3.97;;
495;SDS011;39559;48.630;9.162;2023-05-07T12:49:24;4.03;;;3.73;;
495;SDS011;39559;48.630;9.162;2023-05-07T12:51:50;4.53;;;3.90;;
495;SDS011;39559;48.630;9.162;2023-05-07T12:54:31;6.37;;;4.60;;
495;SDS011;39559;48.630;9.162;2023-05-07T12:57:49;4.40;;;4.00;;
495;SDS011;39559;48.630;9.162;2023-05-07T13:00:31;4.40;;;4.00;;
495;SDS011;39559;48.630;9.162;2023-05-07T13:02:59;4.95;;;4.40;;
495;SDS011;39559;48.630;9.162;2023-05-07T13:05:24;6.40;;;4.03;;
495;SDS011;39559;48.630;9.162;2023-05-07T13:07:56;5.30;;;3.63;;
495;SDS011;39559;48.630;9.162;2023-05-07T13:10:23;4.13;;;3.72;;
495;SDS011;39559;48.630;9.162;2023-05-07T13:12:49;5.10;;;3.72;;
495;SDS011;39559;48.630;9.162;2023-05-07T13:15:17;3.65;;;3.35;;
495;SDS011;39559;48.630;9.162;2023-05-07T13:17:43;5.07;;;4.28;;
495;SDS011;39559;48.630;9.162;2023-05-07T13:21:46;4.00;;;3.60;;
495;SDS011;39559;48.630;9.162;2023-05-07T13:24:11;4.50;;;3.63;;
495;SDS011;39559;48.630;9.162;2023-05-07T13:26:37;5.70;;;4.37;;
495;SDS011;39559;48.630;9.162;2023-05-07T13:29:03;3.80;;;3.50;;
495;SDS011;39559;48.630;9.162;2023-05-07T13:31:28;7.57;;;4.17;;
495;SDS011;39559;48.630;9.162;2023-05-07T13:33:55;5.35;;;4.10;;
495;SDS011;39559;48.630;9.162;2023-05-07T13:36:21;4.70;;;4.30;;
495;SDS011;39559;48.630;9.162;2023-05-07T13:38:47;5.67;;;4.20;;
495;SDS011;39559;48.630;9.162;2023-05-07T13:41:12;5.27;;;3.97;;
495;SDS011;39559;48.630;9.162;2023-05-07T13:45:40;4.18;;;3.78;;
495;SDS011;39559;48.630;9.162;2023-05-07T13:48:06;4.47;;;4.07;;
495;SDS011;39559;48.630;9.162;2023-05-07T13:50:31;4.73;;;4.13;;
495;SDS011;39559;48.630;9.162;2023-05-07T13:52:57;4.37;;;3.97;;
495;SDS011;39559;48.630;9.162;2023-05-07T13:55:23;8.03;;;4.90;;
495;SDS011;39559;48.630;9.162;2023-05-07T13:57:59;9.13;;;6.55;;
495;SDS011;39559;48.630;9.162;2023-05-07T14:00:27;7.85;;;6.13;;
495;SDS011;39559;48.630;9.162;2023-05-07T14:02:54;6.53;;;5.43;;
495;SDS011;39559;48.630;9.162;2023-05-07T14:05:25;4.85;;;4.35;;
495;SDS011;39559;48.630;9.162;2023-05-07T14:09:36;5.10;;;4.40;;
495;SDS011;39559;48.630;9.162;2023-05-07T14:12:02;5.23;;;4.73;;
495;SDS011;39559;48.630;9.162;2023-05-07T14:14:28;6.87;;;4.70;;
495;SDS011;39559;48.630;9.162;2023-05-07T14:16:53;5.13;;;4.63;;
495;SDS011;39559;48.630;9.162;2023-05-07T14:19:19;6.30;;;5.27;;
495;SDS011;39559;48.630;9.162;2023-05-07T14:21:45;7.50;;;5.40;;
495;SDS011;39559;48.630;9.162;2023-05-07T14:24:10;6.90;;;5.63;;
495;SDS011;39559;48.630;9.162;2023-05-07T14:26:36;5.50;;;5.00;;
495;SDS011;39559;48.630;9.162;2023-05-07T14:29:02;9.93;;;5.40;;
495;SDS011;39559;48.630;9.162;2023-05-07T14:33:31;8.88;;;6.18;;
495;SDS011;39559;48.630;9.162;2023-05-07T14:35:56;6.03;;;5.43;;
495;SDS011;39559;48.630;9.162;2023-05-07T14:38:22;7.40;;;5.90;;
495;SDS011;39559;48.630;9.162;2023-05-07T14:40:48;5.80;;;5.17;;
495;SDS011;39559;48.630;9.162;2023-05-07T14:43:13;7.13;;;5.77;;
495;SDS011;39559;48.630;9.162;2023-05-07T14:45:39;6.33;;;5.67;;
495;SDS011;39559;48.630;9.162;2023-05-07T14:48:14;5.78;;;5.13;;
495;SDS011;39559;48.630;9.162;2023-05-07T14:50:41;14.93;;;7.47;;
495;SDS011;39559;48.630;9.162;2023-05-07T14:53:07;6.53;;;5.88;;
495;SDS011;39559;48.630;9.162;2023-05-07T14:57:24;9.15;;;5.80;;
495;SDS011;39559;48.630;9.162;2023-05-07T14:59:50;8.60;;;6.17;;
495;SDS011;39559;48.630;9.162;2023-05-07T15:02:16;5.90;;;5.30;;
495;SDS011;39559;48.630;9.162;2023-05-07T15:04:42;6.75;;;5.38;;
495;SDS011;39559;48.630;9.162;2023-05-07T15:07:17;7.68;;;6.07;;
495;SDS011;39559;48.630;9.162;2023-05-07T15:09:43;6.50;;;5.40;;
495;SDS011;39559;48.630;9.162;2023-05-07T15:12:12;8.45;;;6.00;;
495;SDS011;39559;48.630;9.162;2023-05-07T15:14:42;8.00;;;6.00;;
495;SDS011;39559;48.630;9.162;2023-05-07T15:17:07;6.67;;;4.87;;
495;SDS011;39559;48.630;9.162;2023-05-07T15:21:21;5.25;;;4.70;;
495;SDS011;39559;48.630;9.162;2023-05-07T15:23:47;5.90;;;5.30;;
495;SDS011;39559;48.630;9.162;2023-05-07T15:26:13;6.10;;;5.30;;
495;SDS011;39559;48.630;9.162;2023-05-07T15:28:38;6.00;;;5.50;;
495;SDS011;39559;48.630;9.162;2023-05-07T15:31:04;6.00;;;5.40;;
495;SDS011;39559;48.630;9.162;2023-05-07T15:33:32;6.13;;;5.30;;
495;SDS011;39559;48.630;9.162;2023-05-07T15:35:58;5.65;;;5.10;;
495;SDS011;39559;48.630;9.162;2023-05-07T15:38:25;7.37;;;5.60;;
495;SDS011;39559;48.630;9.162;2023-05-07T15:40:59;6.05;;;5.38;;
495;SDS011;39559;48.630;9.162;2023-05-07T15:45:15;6.28;;;5.45;;
495;SDS011;39559;48.630;9.162;2023-05-07T15:47:41;10.73;;;5.77;;
495;SDS011;39559;48.630;9.162;2023-05-07T15:50:06;6.73;;;6.03;;
495;SDS011;39559;48.630;9.162;2023-05-07T15:52:33;6.07;;;4.72;;
495;SDS011;39559;48.630;9.162;2023-05-07T15:54:58;6.00;;;5.07;;
495;SDS011;39559;48.630;9.162;2023-05-07T15:57:24;5.93;;;5.33;;
495;SDS011;39559;48.630;9.162;2023-05-07T15:59:51;6.45;;;4.97;;
495;SDS011;39559;48.630;9.162;2023-05-07T16:02:16;6.53;;;5.72;;
495;SDS011;39559;48.630;9.162;2023-05-07T16:04:42;7.53;;;5.47;;
495;SDS011;39559;48.630;9.162;2023-05-07T16:09:10;19.15;;;5.30;;
495;SDS011;39559;48.630;9.162;2023-05-07T16:11:36;8.73;;;5.90;;
495;SDS011;39559;48.630;9.162;2023-05-07T16:14:02;9.50;;;5.10;;
495;SDS011;39559;48.630;9.162;2023-05-07T16:16:27;5.90;;;5.30;;
495;SDS011;39559;48.630;9.162;2023-05-07T16:18:56;9.75;;;5.40;;
495;SDS011;39559;48.630;9.162;2023-05-07T16:21:22;6.13;;;5.37;;
495;SDS011;39559;48.630;9.162;2023-05-07T16:23:48;5.63;;;5.07;;
495;SDS011;39559;48.630;9.162;2023-05-07T16:26:15;6.85;;;6.15;;
495;SDS011;39559;48.630;9.162;2023-05-07T16:28:42;6.80;;;5.53;;
495;SDS011;39559;48.630;9.162;2023-05-07T16:33:06;6.97;;;5.63;;
495;SDS011;39559;48.630;9.162;2023-05-07T16:35:32;8.20;;;6.70;;
495;SDS011;39559;48.630;9.162;2023-05-07T16:37:58;8.10;;;5.73;;
495;SDS011;39559;48.630;9.162;2023-05-07T16:40:23;8.40;;;6.47;;
495;SDS011;39559;48.630;9.162;2023-05-07T16:42:49;6.95;;;6.25;;
495;SDS011;39559;48.630;9.162;2023-05-07T16:45:15;8.90;;;5.70;;
495;SDS011;39559;48.630;9.162;2023-05-07T16:47:49;6.00;;;5.43;;
495;SDS011;39559;48.630;9.162;2023-05-07T16:50:15;6.20;;;5.60;;
495;SDS011;39559;48.630;9.162;2023-05-07T16:52:40;7.40;;;5.40;;